createdAt,value
2018-10-06T00:01:06.094Z,15.10
2018-10-06T00:03:34.578Z,14.10
2018-10-06T00:06:02.742Z,13.87
2018-10-06T00:08:30.981Z,13.93
2018-10-06T00:10:59.480Z,14.30
2018-10-06T00:13:27.654Z,13.60
2018-10-06T00:15:55.830Z,14.17
2018-10-06T00:18:24.044Z,13.13
2018-10-06T00:20:52.212Z,14.03
2018-10-06T00:23:20.394Z,14.43
2018-10-06T00:25:48.612Z,13.77
2018-10-06T00:28:16.843Z,13.63
2018-10-06T00:30:45.032Z,13.87
2018-10-06T00:33:13.278Z,13.30
2018-10-06T00:35:41.493Z,13.47
2018-10-06T00:38:09.674Z,14.50
2018-10-06T00:40:37.853Z,14.30
2018-10-06T00:43:06.018Z,14.67
2018-10-06T00:45:34.264Z,13.90
2018-10-06T00:48:02.531Z,13.33
2018-10-06T00:50:30.709Z,13.80
2018-10-06T00:52:59.124Z,15.00
2018-10-06T00:55:27.356Z,12.83
2018-10-06T00:57:55.532Z,11.87
2018-10-06T01:00:23.808Z,11.53
2018-10-06T01:02:51.976Z,10.97
2018-10-06T01:05:20.181Z,11.60
2018-10-06T01:07:48.692Z,11.57
2018-10-06T01:10:16.904Z,11.47
2018-10-06T01:12:45.158Z,10.60
2018-10-06T01:15:13.432Z,12.70
2018-10-06T01:17:41.688Z,12.95
2018-10-06T01:20:09.939Z,11.30
2018-10-06T01:22:38.248Z,11.43
2018-10-06T01:25:06.701Z,11.67
2018-10-06T01:27:35.037Z,11.30
2018-10-06T01:30:03.257Z,12.07
2018-10-06T01:32:31.737Z,11.57
2018-10-06T01:34:59.957Z,11.20
2018-10-06T01:37:28.125Z,11.73
2018-10-06T01:39:56.281Z,12.60
2018-10-06T01:42:24.513Z,11.60
2018-10-06T01:44:52.693Z,11.50
2018-10-06T01:47:20.971Z,11.20
2018-10-06T01:49:49.145Z,13.23
2018-10-06T01:52:17.449Z,12.00
2018-10-06T01:54:45.709Z,11.80
2018-10-06T01:57:13.880Z,13.10
2018-10-06T01:59:42.164Z,12.30
2018-10-06T02:02:10.410Z,13.20
2018-10-06T02:04:38.592Z,13.07
2018-10-06T02:07:06.778Z,12.07
2018-10-06T02:09:35.032Z,13.23
2018-10-06T02:12:03.222Z,12.77
2018-10-06T02:14:31.400Z,13.27
2018-10-06T02:16:59.573Z,12.58
2018-10-06T02:19:27.770Z,12.20
2018-10-06T02:21:55.957Z,12.40
2018-10-06T02:24:24.178Z,13.77
2018-10-06T02:26:52.361Z,13.70
2018-10-06T02:29:20.546Z,13.60
2018-10-06T02:31:48.710Z,13.37
2018-10-06T02:34:16.873Z,12.40
2018-10-06T02:36:45.107Z,11.00
2018-10-06T02:39:13.333Z,10.80
2018-10-06T02:41:41.505Z,11.37
2018-10-06T02:44:09.690Z,11.90
2018-10-06T02:46:37.853Z,10.80
2018-10-06T02:49:06.045Z,11.30
2018-10-06T02:51:34.335Z,10.77
2018-10-06T02:54:02.481Z,10.90
2018-10-06T02:56:30.677Z,10.23
2018-10-06T02:58:59.228Z,11.30
2018-10-06T03:01:27.439Z,12.53
2018-10-06T03:03:55.593Z,11.90
2018-10-06T03:06:23.776Z,10.60
2018-10-06T03:08:52.029Z,12.07
2018-10-06T03:11:20.192Z,11.30
2018-10-06T03:13:48.632Z,11.67
2018-10-06T03:16:16.796Z,11.77
2018-10-06T03:18:45.039Z,11.97
2018-10-06T03:21:13.216Z,11.23
2018-10-06T03:23:41.382Z,12.30
2018-10-06T03:26:09.545Z,13.07
2018-10-06T03:28:37.752Z,14.20
2018-10-06T03:31:05.973Z,12.50
2018-10-06T03:33:34.156Z,12.80
2018-10-06T03:36:02.358Z,11.83
2018-10-06T03:38:30.517Z,12.40
2018-10-06T03:40:58.705Z,11.20
2018-10-06T03:43:26.877Z,11.70
2018-10-06T03:45:55.056Z,10.93
2018-10-06T03:48:23.292Z,12.70
2018-10-06T03:50:51.756Z,11.47
2018-10-06T03:53:19.917Z,11.00
2018-10-06T03:55:48.386Z,11.20
2018-10-06T03:58:16.645Z,11.97
2018-10-06T04:00:44.916Z,11.60
2018-10-06T04:03:13.073Z,13.13
2018-10-06T04:05:41.584Z,13.27
2018-10-06T04:08:09.743Z,11.50
2018-10-06T04:10:37.920Z,13.00
2018-10-06T04:13:06.292Z,14.33
2018-10-06T04:15:34.478Z,13.40
2018-10-06T04:18:02.759Z,13.60
2018-10-06T04:20:30.942Z,12.50
2018-10-06T04:22:59.128Z,11.40
2018-10-06T04:25:27.374Z,11.80
2018-10-06T04:27:55.760Z,11.77
2018-10-06T04:30:23.926Z,11.27
2018-10-06T04:32:52.089Z,11.00
2018-10-06T04:35:20.286Z,12.10
2018-10-06T04:37:48.609Z,12.83
2018-10-06T04:40:17.033Z,11.83
2018-10-06T04:42:45.226Z,11.30
2018-10-06T04:45:13.393Z,11.97
2018-10-06T04:47:41.557Z,11.77
2018-10-06T04:50:09.745Z,11.27
2018-10-06T04:52:38.105Z,11.27
2018-10-06T04:55:06.341Z,10.87
2018-10-06T04:57:34.507Z,11.00
2018-10-06T05:00:02.781Z,11.37
2018-10-06T05:02:30.953Z,11.70
2018-10-06T05:04:59.201Z,12.03
2018-10-06T05:07:27.479Z,12.50
2018-10-06T05:09:55.743Z,12.60
2018-10-06T05:12:23.956Z,26.10
2018-10-06T05:14:52.128Z,17.03
2018-10-06T05:17:20.373Z,14.33
2018-10-06T05:19:48.653Z,14.57
2018-10-06T05:22:16.913Z,11.60
2018-10-06T05:24:45.084Z,12.70
2018-10-06T05:27:13.281Z,12.73
2018-10-06T05:29:41.804Z,12.90
2018-10-06T05:32:10.020Z,17.90
2018-10-06T05:34:38.220Z,18.33
2018-10-06T05:37:06.468Z,15.70
2018-10-06T05:39:34.679Z,13.80
2018-10-06T05:42:02.950Z,14.70
2018-10-06T05:44:31.102Z,17.20
2018-10-06T05:46:59.281Z,15.20
2018-10-06T05:49:27.561Z,15.67
2018-10-06T05:51:55.817Z,19.20
2018-10-06T05:54:23.989Z,17.10
2018-10-06T05:56:52.173Z,18.07
2018-10-06T05:59:20.456Z,16.80
2018-10-06T06:01:48.737Z,14.37
2018-10-06T06:04:16.917Z,20.07
2018-10-06T06:06:45.161Z,17.20
2018-10-06T06:09:13.345Z,16.97
2018-10-06T06:11:41.639Z,21.93
2018-10-06T06:14:09.909Z,49.00
2018-10-06T06:16:38.176Z,16.63
2018-10-06T06:19:06.669Z,13.20
2018-10-06T06:21:34.866Z,16.20
2018-10-06T06:24:03.216Z,14.47
2018-10-06T06:26:31.538Z,13.10
2018-10-06T06:28:59.916Z,13.00
2018-10-06T06:31:28.204Z,12.53
2018-10-06T06:33:56.386Z,11.67
2018-10-06T06:36:24.554Z,20.30
2018-10-06T06:38:52.930Z,14.43
2018-10-06T06:41:21.114Z,11.50
2018-10-06T06:43:49.399Z,11.93
2018-10-06T06:46:18.516Z,10.63
2018-10-06T06:48:46.713Z,11.57
2018-10-06T06:51:14.897Z,11.30
2018-10-06T06:53:43.149Z,11.60
2018-10-06T06:56:11.329Z,11.63
2018-10-06T06:58:40.187Z,10.53
2018-10-06T07:01:08.357Z,12.27
2018-10-06T07:03:36.585Z,12.50
2018-10-06T07:06:04.823Z,11.37
2018-10-06T07:08:33.328Z,11.00
2018-10-06T07:11:01.526Z,11.90
2018-10-06T07:13:29.699Z,14.80
2018-10-06T07:15:57.887Z,13.47
2018-10-06T07:18:26.151Z,12.50
2018-10-06T07:20:54.397Z,11.77
2018-10-06T07:23:22.584Z,12.03
2018-10-06T07:25:50.946Z,11.60
2018-10-06T07:28:19.384Z,13.53
2018-10-06T07:30:47.620Z,12.90
2018-10-06T07:33:15.818Z,13.43
2018-10-06T07:35:43.990Z,12.80
2018-10-06T07:38:12.233Z,12.93
2018-10-06T07:40:40.392Z,13.73
2018-10-06T07:43:08.574Z,14.20
2018-10-06T07:45:36.756Z,16.43
2018-10-06T07:48:05.151Z,18.17
2018-10-06T07:50:33.407Z,16.43
2018-10-06T07:53:02.605Z,15.33
2018-10-06T07:55:31.838Z,14.50
2018-10-06T07:58:00.882Z,14.73
2018-10-06T08:00:30.612Z,13.87
2018-10-06T08:02:59.744Z,14.63
2018-10-06T08:05:28.810Z,13.97
2018-10-06T08:07:57.893Z,14.53
2018-10-06T08:10:27.759Z,15.97
2018-10-06T08:12:57.373Z,15.73
2018-10-06T08:15:26.229Z,16.40
2018-10-06T08:17:55.543Z,14.87
2018-10-06T08:20:24.867Z,16.17
2018-10-06T08:22:54.371Z,16.97
2018-10-06T08:25:23.604Z,14.00
2018-10-06T08:27:52.878Z,15.53
2018-10-06T08:30:21.908Z,15.70
2018-10-06T08:32:51.168Z,16.17
2018-10-06T08:35:20.347Z,14.80
2018-10-06T08:37:49.582Z,15.00
2018-10-06T08:40:18.906Z,15.00
2018-10-06T08:42:48.327Z,16.47
2018-10-06T08:45:17.378Z,14.57
2018-10-06T08:47:46.574Z,17.53
2018-10-06T08:50:16.166Z,16.40
2018-10-06T08:52:45.342Z,15.67
2018-10-06T08:55:14.462Z,15.37
2018-10-06T08:57:43.692Z,15.13
2018-10-06T09:00:12.972Z,14.73
2018-10-06T09:02:42.433Z,14.00
2018-10-06T09:05:11.929Z,14.73
2018-10-06T09:07:40.400Z,16.50
2018-10-06T09:10:11.402Z,15.87
2018-10-06T09:12:40.262Z,15.13
2018-10-06T09:15:09.590Z,15.47
2018-10-06T09:17:39.343Z,14.87
2018-10-06T09:20:08.579Z,17.17
2018-10-06T09:22:38.015Z,16.80
2018-10-06T09:25:06.854Z,16.00
2018-10-06T09:27:35.085Z,17.10
2018-10-06T09:30:03.349Z,15.77
2018-10-06T09:32:31.545Z,16.63
2018-10-06T09:34:59.797Z,15.30
2018-10-06T09:37:28.022Z,15.80
2018-10-06T09:39:56.278Z,16.33
2018-10-06T09:42:24.609Z,15.43
2018-10-06T09:44:52.736Z,17.43
2018-10-06T09:47:20.998Z,16.07
2018-10-06T09:49:49.234Z,15.73
2018-10-06T09:52:17.707Z,15.97
2018-10-06T09:54:45.898Z,16.00
2018-10-06T09:57:14.286Z,15.30
2018-10-06T09:59:42.798Z,16.30
2018-10-06T10:02:15.392Z,15.37
2018-10-06T10:04:43.649Z,15.80
2018-10-06T10:07:11.915Z,15.00
2018-10-06T10:09:40.213Z,14.10
2018-10-06T10:12:08.730Z,14.97
2018-10-06T10:14:36.971Z,14.47
2018-10-06T10:17:05.420Z,14.50
2018-10-06T10:19:33.597Z,14.27
2018-10-06T10:22:01.993Z,15.07
2018-10-06T10:24:30.205Z,13.80
2018-10-06T10:26:58.697Z,21.40
2018-10-06T10:29:26.869Z,14.40
2018-10-06T10:31:55.092Z,13.30
2018-10-06T10:34:23.355Z,13.63
2018-10-06T10:36:51.509Z,15.83
2018-10-06T10:39:19.713Z,13.27
2018-10-06T10:41:47.909Z,15.20
2018-10-06T10:44:16.267Z,14.40
2018-10-06T10:46:44.485Z,12.37
2018-10-06T10:49:12.723Z,12.43
2018-10-06T10:51:40.959Z,12.27
2018-10-06T10:54:09.152Z,13.57
2018-10-06T10:56:37.459Z,12.37
2018-10-06T10:59:05.726Z,13.03
2018-10-06T11:01:33.992Z,13.00
2018-10-06T11:04:02.291Z,12.20
2018-10-06T11:06:30.918Z,14.07
2018-10-06T11:08:59.233Z,12.40
2018-10-06T11:11:27.410Z,14.30
2018-10-06T11:13:55.670Z,11.70
2018-10-06T11:16:23.922Z,12.53
2018-10-06T11:18:52.180Z,13.23
2018-10-06T11:21:20.397Z,13.73
2018-10-06T11:23:48.588Z,14.10
2018-10-06T11:26:16.901Z,13.53
2018-10-06T11:28:45.398Z,13.30
2018-10-06T11:31:13.613Z,14.03
2018-10-06T11:33:42.369Z,14.70
2018-10-06T11:36:12.805Z,14.70
2018-10-06T11:38:41.013Z,15.00
2018-10-06T11:41:09.269Z,13.30
2018-10-06T11:43:37.445Z,13.40
2018-10-06T11:46:05.728Z,15.00
2018-10-06T11:48:34.897Z,13.87
2018-10-06T11:51:03.092Z,14.00
2018-10-06T11:53:31.394Z,12.70
2018-10-06T11:55:59.849Z,14.97
2018-10-06T11:58:28.008Z,16.90
2018-10-06T12:00:56.193Z,14.07
2018-10-06T12:03:24.468Z,13.00
2018-10-06T12:05:52.755Z,12.87
2018-10-06T12:08:20.848Z,12.47
2018-10-06T12:10:49.018Z,14.40
2018-10-06T12:13:17.264Z,15.07
2018-10-06T12:15:45.480Z,13.60
2018-10-06T12:18:13.734Z,13.60
2018-10-06T12:20:42.019Z,12.60
2018-10-06T12:23:10.098Z,13.73
2018-10-06T12:25:38.323Z,20.27
2018-10-06T12:28:06.830Z,23.27
2018-10-06T12:30:35.437Z,13.83
2018-10-06T12:33:03.686Z,11.90
2018-10-06T12:35:32.001Z,11.10
2018-10-06T12:38:00.162Z,13.77
2018-10-06T12:40:28.425Z,12.30
2018-10-06T12:42:56.649Z,12.67
2018-10-06T12:45:24.825Z,20.20
2018-10-06T12:47:52.978Z,13.33
2018-10-06T12:50:21.173Z,13.50
2018-10-06T12:52:49.401Z,13.50
2018-10-06T12:55:17.591Z,13.60
2018-10-06T12:57:45.847Z,12.67
2018-10-06T13:00:14.185Z,12.63
2018-10-06T13:02:42.391Z,12.10
2018-10-06T13:05:10.576Z,13.20
2018-10-06T13:07:38.917Z,11.77
2018-10-06T13:10:07.093Z,10.67
2018-10-06T13:12:35.291Z,12.00
2018-10-06T13:15:04.424Z,11.13
2018-10-06T13:17:32.656Z,11.90
2018-10-06T13:20:00.939Z,10.33
2018-10-06T13:22:29.277Z,11.77
2018-10-06T13:24:57.488Z,12.10
2018-10-06T13:27:25.659Z,10.40
2018-10-06T13:29:53.848Z,10.93
2018-10-06T13:32:22.028Z,8.90
2018-10-06T13:34:50.234Z,9.63
2018-10-06T13:37:18.815Z,11.07
2018-10-06T13:39:47.042Z,8.80
2018-10-06T13:42:15.481Z,8.40
2018-10-06T13:44:43.683Z,9.80
2018-10-06T13:47:11.853Z,9.60
2018-10-06T13:49:40.145Z,9.10
2018-10-06T13:52:08.341Z,7.70
2018-10-06T13:54:36.613Z,7.60
2018-10-06T13:57:04.806Z,6.80
2018-10-06T13:59:33.051Z,7.77
2018-10-06T14:02:01.482Z,6.97
2018-10-06T14:04:29.693Z,7.33
2018-10-06T14:06:57.881Z,7.60
2018-10-06T14:09:26.108Z,7.20
2018-10-06T14:11:54.628Z,7.53
2018-10-06T14:14:22.814Z,7.58
2018-10-06T14:16:50.968Z,8.33
2018-10-06T14:19:19.148Z,7.60
2018-10-06T14:21:47.323Z,6.53
2018-10-06T14:24:15.594Z,7.30
2018-10-06T14:26:43.774Z,9.28
2018-10-06T14:29:12.006Z,6.53
2018-10-06T14:31:40.150Z,6.95
2018-10-06T14:34:08.394Z,6.00
2018-10-06T14:36:36.574Z,5.70
2018-10-06T14:39:07.722Z,6.20
2018-10-06T14:41:36.006Z,8.67
2018-10-06T14:44:04.229Z,7.67
2018-10-06T14:46:32.366Z,19.17
2018-10-06T14:49:00.782Z,8.40
2018-10-06T14:51:28.949Z,8.20
2018-10-06T14:53:57.333Z,14.87
2018-10-06T14:56:25.513Z,9.13
2018-10-06T14:58:53.713Z,8.77
2018-10-06T15:01:22.025Z,9.90
2018-10-06T15:03:50.275Z,9.47
2018-10-06T15:06:18.437Z,8.83
2018-10-06T15:08:47.021Z,15.43
2018-10-06T15:11:15.243Z,13.30
2018-10-06T15:13:43.472Z,41.47
2018-10-06T15:16:11.751Z,9.33
2018-10-06T15:18:39.933Z,8.50
2018-10-06T15:21:08.093Z,9.10
2018-10-06T15:23:36.605Z,8.70
2018-10-06T15:26:05.264Z,15.53
2018-10-06T15:28:33.722Z,32.47
2018-10-06T15:31:02.287Z,11.20
2018-10-06T15:33:30.492Z,9.30
2018-10-06T15:35:58.725Z,8.30
2018-10-06T15:38:26.897Z,7.97
2018-10-06T15:40:55.064Z,8.87
2018-10-06T15:43:23.237Z,10.10
2018-10-06T15:45:51.531Z,9.40
2018-10-06T15:48:19.693Z,9.07
2018-10-06T15:50:47.965Z,9.60
2018-10-06T15:53:16.171Z,8.53
2018-10-06T15:55:44.442Z,8.90
2018-10-06T15:58:12.593Z,8.00
2018-10-06T16:00:40.829Z,8.67
2018-10-06T16:03:09.483Z,71.63
2018-10-06T16:05:37.702Z,85.80
2018-10-06T16:08:06.201Z,97.73
2018-10-06T16:10:34.449Z,18.30
2018-10-06T16:13:02.609Z,9.50
2018-10-06T16:15:30.894Z,9.03
2018-10-06T16:17:59.134Z,14.57
2018-10-06T16:20:27.368Z,10.17
2018-10-06T16:22:55.595Z,8.43
2018-10-06T16:25:23.761Z,8.03
2018-10-06T16:27:52.280Z,9.20
2018-10-06T16:30:20.557Z,9.37
2018-10-06T16:32:48.736Z,9.00
2018-10-06T16:35:16.970Z,9.30
2018-10-06T16:37:45.153Z,8.17
2018-10-06T16:40:13.426Z,22.40
2018-10-06T16:42:41.596Z,12.03
2018-10-06T16:45:09.866Z,9.70
2018-10-06T16:47:38.122Z,23.43
2018-10-06T16:50:06.416Z,10.80
2018-10-06T16:52:34.616Z,9.07
2018-10-06T16:55:03.305Z,10.90
2018-10-06T16:57:31.593Z,14.90
2018-10-06T16:59:59.896Z,11.47
2018-10-06T17:02:28.053Z,14.40
2018-10-06T17:04:56.369Z,16.30
2018-10-06T17:07:24.549Z,29.00
2018-10-06T17:09:52.919Z,12.67
2018-10-06T17:12:21.118Z,10.80
2018-10-06T17:14:49.313Z,12.53
2018-10-06T17:17:17.550Z,15.93
2018-10-06T17:19:45.804Z,21.37
2018-10-06T17:22:14.240Z,19.37
2018-10-06T17:24:42.472Z,13.27
2018-10-06T17:27:10.702Z,11.97
2018-10-06T17:29:39.326Z,13.13
2018-10-06T17:32:07.822Z,14.60
2018-10-06T17:34:36.000Z,15.47
2018-10-06T17:37:04.267Z,16.30
2018-10-06T17:39:32.466Z,13.80
2018-10-06T17:42:01.404Z,13.77
2018-10-06T17:44:29.650Z,14.53
2018-10-06T17:46:57.769Z,15.70
2018-10-06T17:49:26.005Z,14.77
2018-10-06T17:51:54.226Z,14.07
2018-10-06T17:54:22.425Z,13.90
2018-10-06T17:56:50.593Z,17.23
2018-10-06T17:59:18.811Z,50.77
2018-10-06T18:01:46.997Z,89.17
2018-10-06T18:04:15.261Z,73.40
2018-10-06T18:06:43.608Z,35.07
2018-10-06T18:09:11.961Z,34.53
2018-10-06T18:11:40.176Z,28.53
2018-10-06T18:14:08.429Z,30.50
2018-10-06T18:16:36.749Z,26.83
2018-10-06T18:19:05.214Z,22.37
2018-10-06T18:21:33.626Z,22.53
2018-10-06T18:24:01.830Z,18.10
2018-10-06T18:27:22.792Z,18.90
2018-10-06T18:29:51.089Z,20.43
2018-10-06T18:32:19.358Z,19.43
2018-10-06T18:34:47.690Z,19.30
2018-10-06T18:37:16.039Z,18.77
2018-10-06T18:39:44.192Z,69.93
2018-10-06T18:42:12.378Z,36.87
2018-10-06T18:44:40.844Z,26.07
2018-10-06T18:47:09.136Z,20.03
2018-10-06T18:49:37.394Z,20.10
2018-10-06T18:52:05.654Z,19.80
2018-10-06T18:54:34.026Z,20.07
2018-10-06T18:57:02.350Z,20.77
2018-10-06T18:59:31.725Z,21.93
2018-10-06T19:01:59.999Z,21.50
2018-10-06T19:04:28.264Z,20.93
2018-10-06T19:06:56.459Z,21.70
2018-10-06T19:09:24.801Z,20.60
2018-10-06T19:11:53.105Z,19.23
2018-10-06T19:14:21.341Z,18.50
2018-10-06T19:16:49.617Z,17.83
2018-10-06T19:19:17.933Z,18.20
2018-10-06T19:21:46.232Z,17.07
2018-10-06T19:24:14.777Z,25.83
2018-10-06T19:26:43.103Z,24.65
2018-10-06T19:29:11.313Z,19.47
2018-10-06T19:31:39.528Z,33.77
2018-10-06T19:34:07.741Z,51.47
2018-10-06T19:36:36.220Z,31.70
2018-10-06T19:39:05.587Z,21.33
2018-10-06T19:41:33.874Z,18.60
2018-10-06T19:44:02.251Z,18.40
2018-10-06T19:46:31.691Z,18.75
2018-10-06T19:48:59.921Z,17.87
2018-10-06T19:51:28.502Z,19.37
2018-10-06T19:53:56.836Z,17.10
2018-10-06T19:56:25.140Z,19.97
2018-10-06T19:58:53.483Z,23.10
2018-10-06T20:01:21.830Z,19.97
2018-10-06T20:03:50.110Z,21.73
2018-10-06T20:06:18.380Z,20.53
2018-10-06T20:08:46.578Z,18.97
2018-10-06T20:11:14.983Z,18.70
2018-10-06T20:13:43.500Z,18.30
2018-10-06T20:16:11.682Z,19.70
2018-10-06T20:18:39.878Z,21.30
2018-10-06T20:21:08.058Z,55.53
2018-10-06T20:23:36.283Z,39.73
2018-10-06T20:26:04.537Z,40.20
2018-10-06T20:28:33.227Z,23.13
2018-10-06T20:31:01.489Z,21.37
2018-10-06T20:33:29.795Z,31.23
2018-10-06T20:35:57.983Z,19.30
2018-10-06T20:38:26.225Z,19.82
2018-10-06T20:40:54.413Z,18.90
2018-10-06T20:43:22.601Z,18.00
2018-10-06T20:45:50.857Z,18.00
2018-10-06T20:48:19.048Z,16.80
2018-10-06T20:50:47.281Z,17.63
2018-10-06T20:53:15.580Z,18.57
2018-10-06T20:55:43.714Z,18.03
2018-10-06T20:58:11.910Z,17.47
2018-10-06T21:00:40.274Z,17.20
2018-10-06T21:03:08.462Z,16.87
2018-10-06T21:05:36.784Z,17.70
2018-10-06T21:08:04.961Z,17.07
2018-10-06T21:10:33.170Z,17.50
2018-10-06T21:13:01.426Z,17.37
2018-10-06T21:15:29.678Z,21.60
2018-10-06T21:17:57.879Z,44.60
2018-10-06T21:20:26.277Z,18.93
2018-10-06T21:22:54.466Z,18.77
2018-10-06T21:25:22.644Z,18.57
2018-10-06T21:27:51.078Z,16.70
2018-10-06T21:30:19.267Z,16.03
2018-10-06T21:32:47.513Z,18.10
2018-10-06T21:35:16.163Z,17.87
2018-10-06T21:37:44.437Z,16.70
2018-10-06T21:40:12.657Z,16.73
2018-10-06T21:42:40.899Z,17.53
2018-10-06T21:45:12.157Z,25.37
2018-10-06T21:47:40.461Z,19.53
2018-10-06T21:50:08.699Z,19.40
2018-10-06T21:52:37.457Z,17.93
2018-10-06T21:55:06.347Z,19.70
2018-10-06T21:57:34.528Z,24.10
2018-10-06T22:00:02.948Z,23.50
2018-10-06T22:02:31.203Z,20.70
2018-10-06T22:04:59.495Z,21.00
2018-10-06T22:07:28.042Z,19.37
2018-10-06T22:09:56.242Z,20.53
2018-10-06T22:12:24.660Z,21.80
2018-10-06T22:14:53.186Z,22.27
2018-10-06T22:17:21.386Z,23.30
2018-10-06T22:19:49.637Z,24.50
2018-10-06T22:22:17.804Z,22.00
2018-10-06T22:24:46.009Z,19.70
2018-10-06T22:27:14.262Z,20.50
2018-10-06T22:29:42.479Z,19.10
2018-10-06T22:32:10.678Z,19.47
2018-10-06T22:34:38.852Z,20.00
2018-10-06T22:37:07.186Z,20.40
2018-10-06T22:39:35.411Z,20.13
2018-10-06T22:42:03.598Z,18.87
2018-10-06T22:44:31.765Z,19.67
2018-10-06T22:47:00.213Z,19.90
2018-10-06T22:49:28.389Z,19.73
2018-10-06T22:51:56.817Z,19.80
2018-10-06T22:54:25.317Z,20.10
2018-10-06T22:56:53.602Z,18.97
2018-10-06T22:59:21.737Z,18.17
2018-10-06T23:01:49.931Z,18.17
2018-10-06T23:04:18.791Z,18.20
2018-10-06T23:06:47.039Z,17.27
2018-10-06T23:09:15.283Z,18.90
2018-10-06T23:11:43.654Z,18.63
2018-10-06T23:14:11.930Z,16.90
2018-10-06T23:16:40.334Z,17.10
2018-10-06T23:19:09.282Z,17.20
2018-10-06T23:21:37.498Z,17.30
2018-10-06T23:24:05.890Z,16.13
2018-10-06T23:26:34.062Z,16.70
2018-10-06T23:29:02.319Z,17.93
2018-10-06T23:31:30.582Z,17.07
2018-10-06T23:33:58.756Z,17.67
2018-10-06T23:36:27.115Z,19.23
2018-10-06T23:38:55.288Z,17.30
2018-10-06T23:41:23.482Z,17.23
2018-10-06T23:43:51.745Z,18.10
2018-10-06T23:46:19.988Z,17.60
2018-10-06T23:48:48.410Z,18.90
2018-10-06T23:51:16.586Z,17.60
2018-10-06T23:53:44.858Z,16.90
2018-10-06T23:56:13.040Z,16.57
2018-10-06T23:58:41.224Z,17.30
